createdAt,value
2023-02-16T00:00:31.035Z,25.33
2023-02-16T00:03:33.655Z,33.85
2023-02-16T00:06:36.725Z,24.90
2023-02-16T00:09:40.760Z,27.85
2023-02-16T00:13:01.145Z,23.37
2023-02-16T00:16:03.904Z,27.93
2023-02-16T00:19:19.917Z,24.67
2023-02-16T00:22:22.927Z,30.57
2023-02-16T00:25:26.996Z,24.67
2023-02-16T00:28:29.890Z,27.50
2023-02-16T00:31:32.893Z,36.75
2023-02-16T00:34:38.043Z,31.52
2023-02-16T00:37:40.605Z,28.63
2023-02-16T00:40:44.812Z,23.03
2023-02-16T00:43:47.395Z,26.87
2023-02-16T00:46:50.227Z,24.73
2023-02-16T00:49:54.725Z,26.40
2023-02-16T00:52:58.575Z,25.63
2023-02-16T00:59:07.515Z,21.90
2023-02-16T01:02:10.191Z,23.00
2023-02-16T01:05:13.603Z,23.90
2023-02-16T01:08:35.535Z,29.15
2023-02-16T01:11:39.800Z,23.67
2023-02-16T01:14:42.507Z,22.70
2023-02-16T01:17:45.146Z,23.50
2023-02-16T01:20:48.871Z,24.63
2023-02-16T01:23:51.528Z,20.33
2023-02-16T01:26:55.474Z,21.80
2023-02-16T01:33:00.908Z,25.13
2023-02-16T01:36:05.589Z,20.90
2023-02-16T01:39:09.202Z,27.70
2023-02-16T01:42:24.246Z,29.95
2023-02-16T01:45:32.074Z,24.67
2023-02-16T01:48:34.701Z,24.03
2023-02-16T01:51:45.406Z,25.17
2023-02-16T01:54:51.633Z,21.57
2023-02-16T01:57:58.256Z,23.83
2023-02-16T02:01:30.461Z,22.60
2023-02-16T02:04:56.321Z,23.20
2023-02-16T02:08:01.692Z,23.23
2023-02-16T02:11:09.164Z,22.97
2023-02-16T02:14:17.809Z,18.77
2023-02-16T02:17:21.511Z,22.57
2023-02-16T02:20:48.437Z,23.33
2023-02-16T02:24:05.953Z,22.83
2023-02-16T02:27:18.604Z,21.27
2023-02-16T02:30:31.799Z,22.67
2023-02-16T02:33:44.751Z,19.70
2023-02-16T02:36:51.358Z,24.27
2023-02-16T02:39:59.610Z,21.50
2023-02-16T02:43:08.955Z,21.73
2023-02-16T02:46:14.649Z,18.47
2023-02-16T02:49:17.377Z,21.40
2023-02-16T02:52:20.461Z,24.23
2023-02-16T02:55:40.737Z,26.42
2023-02-16T02:59:03.369Z,22.53
2023-02-16T03:02:06.033Z,21.20
2023-02-16T03:05:11.084Z,23.80
2023-02-16T03:08:15.735Z,21.63
2023-02-16T03:11:39.049Z,21.53
2023-02-16T03:14:45.215Z,19.80
2023-02-16T03:18:05.475Z,24.30
2023-02-16T03:21:25.702Z,17.80
2023-02-16T03:24:48.881Z,18.37
2023-02-16T03:28:09.548Z,18.90
2023-02-16T03:31:17.648Z,15.43
2023-02-16T03:34:22.020Z,21.03
2023-02-16T03:37:24.635Z,17.37
2023-02-16T03:40:33.279Z,23.43
2023-02-16T03:43:35.926Z,20.90
2023-02-16T03:46:40.020Z,19.17
2023-02-16T03:49:42.649Z,19.97
2023-02-16T03:52:45.407Z,16.50
2023-02-16T03:55:49.549Z,18.27
2023-02-16T03:58:52.357Z,18.67
2023-02-16T04:01:56.454Z,19.57
2023-02-16T04:04:59.376Z,16.37
2023-02-16T04:08:02.411Z,18.23
2023-02-16T04:11:27.081Z,17.75
2023-02-16T04:14:28.828Z,20.90
2023-02-16T04:17:33.547Z,17.47
2023-02-16T04:20:36.779Z,17.87
2023-02-16T04:23:39.508Z,20.65
2023-02-16T04:26:42.192Z,17.20
2023-02-16T04:29:45.111Z,20.30
2023-02-16T04:32:49.330Z,15.70
2023-02-16T04:35:52.005Z,20.00
2023-02-16T04:38:54.707Z,16.13
2023-02-16T04:41:57.717Z,18.47
2023-02-16T04:45:00.337Z,18.05
2023-02-16T04:48:04.314Z,15.57
2023-02-16T04:51:07.344Z,16.47
2023-02-16T04:54:10.127Z,18.80
2023-02-16T04:57:13.053Z,18.80
2023-02-16T05:00:16.349Z,21.88
2023-02-16T05:03:20.533Z,23.55
2023-02-16T05:06:23.316Z,22.60
2023-02-16T05:09:26.196Z,20.43
2023-02-16T05:12:46.394Z,24.23
2023-02-16T05:15:49.253Z,22.73
2023-02-16T05:18:53.259Z,24.55
2023-02-16T05:21:55.935Z,24.53
2023-02-16T05:24:58.587Z,20.87
2023-02-16T05:28:01.599Z,19.77
2023-02-16T05:31:04.578Z,16.48
2023-02-16T05:34:08.643Z,16.92
2023-02-16T05:40:14.809Z,20.00
2023-02-16T05:43:17.716Z,18.65
2023-02-16T05:46:20.640Z,23.33
2023-02-16T05:49:24.830Z,24.98
2023-02-16T05:52:27.710Z,18.77
2023-02-16T05:55:30.714Z,24.23
2023-02-16T05:58:33.480Z,17.98
2023-02-16T06:01:36.230Z,19.30
2023-02-16T06:04:40.355Z,19.87
2023-02-16T06:07:43.077Z,23.37
2023-02-16T06:10:45.926Z,23.13
2023-02-16T06:13:50.152Z,20.53
2023-02-16T06:16:52.809Z,22.77
2023-02-16T06:19:56.777Z,19.03
2023-02-16T06:22:59.415Z,16.37
2023-02-16T06:26:02.075Z,25.53
2023-02-16T06:29:05.180Z,24.23
2023-02-16T06:32:07.927Z,18.52
2023-02-16T06:35:12.102Z,22.73
2023-02-16T06:38:14.792Z,17.33
2023-02-16T06:41:31.478Z,20.70
2023-02-16T06:44:34.292Z,21.93
2023-02-16T06:47:37.362Z,15.87
2023-02-16T06:50:41.390Z,16.70
2023-02-16T06:53:44.036Z,14.20
2023-02-16T06:56:46.833Z,16.57
2023-02-16T06:59:49.694Z,19.37
2023-02-16T07:02:52.426Z,22.33
2023-02-16T07:05:56.664Z,28.10
2023-02-16T07:09:00.423Z,17.50
2023-02-16T07:12:03.062Z,19.67
2023-02-16T07:15:06.150Z,19.40
2023-02-16T07:18:08.856Z,19.35
2023-02-16T07:21:13.056Z,19.00
2023-02-16T07:24:16.086Z,20.53
2023-02-16T07:27:18.753Z,16.85
2023-02-16T07:30:21.761Z,17.50
2023-02-16T07:33:24.596Z,21.70
2023-02-16T07:36:28.874Z,23.03
2023-02-16T07:39:31.871Z,26.20
2023-02-16T07:42:35.331Z,17.38
2023-02-16T07:45:38.117Z,18.60
2023-02-16T07:48:40.731Z,17.60
2023-02-16T07:51:44.958Z,18.33
2023-02-16T07:54:47.708Z,18.20
2023-02-16T07:57:54.714Z,19.90
2023-02-16T08:00:58.356Z,18.93
2023-02-16T08:04:01.079Z,17.10
2023-02-16T08:07:04.954Z,14.67
2023-02-16T08:13:10.898Z,22.70
2023-02-16T08:16:16.008Z,22.03
2023-02-16T08:19:18.624Z,21.33
2023-02-16T08:22:22.587Z,20.43
2023-02-16T08:25:25.764Z,18.90
2023-02-16T08:28:29.471Z,25.70
2023-02-16T08:31:34.987Z,23.33
2023-02-16T08:34:38.732Z,21.43
2023-02-16T08:37:42.674Z,21.55
2023-02-16T08:43:52.371Z,21.70
2023-02-16T08:46:57.334Z,23.17
2023-02-16T08:49:59.938Z,20.87
2023-02-16T08:53:04.079Z,21.47
2023-02-16T08:56:07.236Z,23.53
2023-02-16T08:59:09.964Z,19.10
2023-02-16T09:02:12.842Z,18.90
2023-02-16T09:05:16.077Z,22.65
2023-02-16T09:08:20.396Z,22.50
2023-02-16T09:11:24.027Z,20.27
2023-02-16T09:14:27.997Z,20.00
2023-02-16T09:17:31.161Z,24.80
2023-02-16T09:20:34.118Z,21.17
2023-02-16T09:23:38.506Z,20.85
2023-02-16T09:26:42.860Z,20.50
2023-02-16T09:29:45.470Z,21.07
2023-02-16T09:32:48.265Z,21.73
2023-02-16T09:35:50.906Z,19.10
2023-02-16T09:38:56.360Z,18.37
2023-02-16T09:42:05.636Z,20.67
2023-02-16T09:45:10.546Z,21.00
2023-02-16T09:48:22.945Z,22.70
2023-02-16T09:51:34.284Z,20.00
2023-02-16T09:54:43.990Z,21.03
2023-02-16T09:57:57.194Z,24.10
2023-02-16T10:01:05.580Z,20.92
2023-02-16T10:04:28.907Z,17.00
2023-02-16T10:07:36.398Z,22.05
2023-02-16T10:10:46.364Z,21.67
2023-02-16T10:13:54.111Z,18.83
2023-02-16T10:17:03.167Z,20.63
2023-02-16T10:20:11.418Z,22.93
2023-02-16T10:23:21.436Z,19.13
2023-02-16T10:26:29.518Z,19.30
2023-02-16T10:29:32.179Z,24.40
2023-02-16T10:32:44.024Z,23.33
2023-02-16T10:35:48.522Z,17.97
2023-02-16T10:38:56.431Z,17.97
2023-02-16T10:42:04.408Z,16.53
2023-02-16T10:45:18.860Z,20.87
2023-02-16T10:48:22.990Z,23.90
2023-02-16T10:51:28.963Z,20.00
2023-02-16T10:54:33.213Z,17.10
2023-02-16T10:57:37.232Z,19.43
2023-02-16T11:00:48.303Z,14.60
2023-02-16T11:03:53.135Z,19.53
2023-02-16T11:07:05.017Z,16.90
2023-02-16T11:10:27.473Z,19.33
2023-02-16T11:13:34.011Z,17.77
2023-02-16T11:16:36.813Z,17.60
2023-02-16T11:19:40.273Z,17.60
2023-02-16T11:22:43.031Z,14.10
2023-02-16T11:25:55.813Z,18.70
2023-02-16T11:29:09.225Z,16.93
2023-02-16T11:32:13.780Z,17.33
2023-02-16T11:35:17.608Z,16.47
2023-02-16T11:38:29.158Z,17.80
2023-02-16T11:41:33.578Z,18.73
2023-02-16T11:44:39.678Z,14.47
2023-02-16T11:47:43.197Z,16.90
2023-02-16T11:50:57.904Z,16.95
2023-02-16T11:54:02.557Z,16.40
2023-02-16T11:57:09.270Z,16.20
2023-02-16T12:00:18.161Z,10.13
2023-02-16T12:03:31.476Z,10.77
2023-02-16T12:06:47.114Z,10.35
2023-02-16T12:09:54.979Z,13.13
2023-02-16T12:13:04.011Z,12.07
2023-02-16T12:16:17.837Z,14.13
2023-02-16T12:22:35.081Z,13.07
2023-02-16T12:25:40.037Z,11.83
2023-02-16T12:28:47.981Z,15.10
2023-02-16T12:32:02.348Z,18.87
2023-02-16T12:35:14.831Z,12.17
2023-02-16T12:38:24.582Z,19.47
2023-02-16T12:41:35.976Z,16.70
2023-02-16T12:44:42.801Z,15.73
2023-02-16T12:47:51.255Z,13.30
2023-02-16T12:50:54.289Z,11.13
2023-02-16T12:54:01.167Z,14.60
2023-02-16T12:57:08.162Z,12.13
2023-02-16T13:00:17.778Z,18.23
2023-02-16T13:03:35.074Z,9.67
2023-02-16T13:06:41.902Z,13.40
2023-02-16T13:09:51.374Z,11.87
2023-02-16T13:12:57.230Z,13.10
2023-02-16T13:16:03.305Z,12.27
2023-02-16T13:19:07.545Z,16.37
2023-02-16T13:22:53.732Z,14.00
2023-02-16T13:26:10.813Z,11.93
2023-02-16T13:29:30.225Z,11.60
2023-02-16T13:33:00.227Z,11.13
2023-02-16T13:36:29.753Z,11.83
2023-02-16T13:39:42.785Z,16.47
2023-02-16T13:42:59.311Z,14.80
2023-02-16T13:46:05.822Z,11.13
2023-02-16T13:49:28.000Z,12.60
2023-02-16T13:52:35.101Z,14.20
2023-02-16T13:55:40.447Z,12.87
2023-02-16T13:58:43.241Z,11.33
2023-02-16T14:01:47.309Z,12.98
2023-02-16T14:05:05.372Z,17.40
2023-02-16T14:08:18.852Z,14.47
2023-02-16T14:14:31.448Z,11.87
2023-02-16T14:17:35.973Z,12.30
2023-02-16T14:20:38.912Z,10.60
2023-02-16T14:23:43.046Z,12.95
2023-02-16T14:26:53.761Z,15.57
2023-02-16T14:29:58.358Z,11.83
2023-02-16T14:33:06.876Z,16.97
2023-02-16T14:36:15.865Z,9.53
2023-02-16T14:39:22.889Z,19.10
2023-02-16T14:42:30.156Z,10.40
2023-02-16T14:45:51.805Z,15.43
2023-02-16T14:49:18.150Z,10.17
2023-02-16T14:52:38.727Z,13.07
2023-02-16T14:55:55.013Z,12.80
2023-02-16T14:59:01.535Z,10.60
2023-02-16T15:02:29.508Z,14.67
2023-02-16T15:05:34.374Z,13.17
2023-02-16T15:08:40.303Z,11.87
2023-02-16T15:12:07.998Z,14.93
2023-02-16T15:15:19.648Z,14.23
2023-02-16T15:18:24.039Z,12.17
2023-02-16T15:21:28.491Z,14.50
2023-02-16T15:24:31.291Z,14.17
2023-02-16T15:27:35.396Z,11.45
2023-02-16T15:30:41.242Z,12.80
2023-02-16T15:33:46.215Z,14.90
2023-02-16T15:36:48.816Z,14.97
2023-02-16T15:40:08.760Z,18.05
2023-02-16T15:43:26.816Z,17.60
2023-02-16T15:46:31.738Z,12.97
2023-02-16T15:49:34.975Z,14.60
2023-02-16T15:52:38.756Z,20.08
2023-02-16T15:55:45.834Z,9.83
2023-02-16T15:58:50.250Z,13.23
2023-02-16T16:01:58.177Z,9.67
2023-02-16T16:05:03.428Z,12.47
2023-02-16T16:08:06.363Z,8.43
2023-02-16T16:11:09.415Z,11.93
2023-02-16T16:14:14.685Z,10.52
2023-02-16T16:17:28.037Z,6.33
2023-02-16T16:20:32.228Z,9.23
2023-02-16T16:23:34.833Z,5.90
2023-02-16T16:26:52.697Z,5.97
2023-02-16T16:30:11.396Z,6.63
2023-02-16T16:33:15.916Z,5.67
2023-02-16T16:36:18.587Z,8.17
2023-02-16T16:39:25.414Z,4.93
2023-02-16T16:42:28.468Z,7.37
2023-02-16T16:45:39.901Z,8.68
2023-02-16T16:48:46.701Z,15.90
2023-02-16T16:51:53.267Z,9.87
2023-02-16T16:54:55.882Z,5.60
2023-02-16T16:58:00.600Z,4.93
2023-02-16T17:01:05.176Z,8.47
2023-02-16T17:04:08.011Z,6.57
2023-02-16T17:07:10.641Z,5.05
2023-02-16T17:10:13.381Z,6.27
2023-02-16T17:13:17.490Z,5.75
2023-02-16T17:16:22.943Z,7.83
2023-02-16T17:19:27.192Z,6.00
2023-02-16T17:22:29.876Z,7.60
2023-02-16T17:25:34.296Z,9.77
2023-02-16T17:28:37.563Z,9.03
2023-02-16T17:31:42.394Z,9.52
2023-02-16T17:34:45.717Z,8.83
2023-02-16T17:37:49.371Z,5.70
2023-02-16T17:43:56.164Z,9.10
2023-02-16T17:47:00.249Z,8.55
2023-02-16T17:50:03.876Z,10.97
2023-02-16T17:56:14.621Z,11.07
2023-02-16T17:59:17.428Z,9.20
2023-02-16T18:02:21.748Z,9.88
2023-02-16T18:05:24.724Z,8.70
2023-02-16T18:08:27.375Z,13.00
2023-02-16T18:11:30.086Z,10.67
2023-02-16T18:14:32.806Z,12.82
2023-02-16T18:17:36.858Z,13.00
2023-02-16T18:20:39.860Z,16.27
2023-02-16T18:23:42.529Z,15.27
2023-02-16T18:26:45.411Z,13.30
2023-02-16T18:29:48.157Z,11.65
2023-02-16T18:32:52.153Z,10.40
2023-02-16T18:35:57.151Z,11.57
2023-02-16T18:39:00.022Z,11.90
2023-02-16T18:42:02.922Z,19.30
2023-02-16T18:45:06.953Z,9.95
2023-02-16T18:48:11.402Z,8.73
2023-02-16T18:51:14.196Z,12.97
2023-02-16T18:54:16.859Z,15.20
2023-02-16T18:57:19.564Z,17.00
2023-02-16T19:00:22.285Z,11.83
2023-02-16T19:03:27.655Z,19.33
2023-02-16T19:06:31.304Z,13.80
2023-02-16T19:09:33.902Z,11.67
2023-02-16T19:12:36.625Z,11.13
2023-02-16T19:15:39.371Z,13.88
2023-02-16T19:18:43.400Z,10.85
2023-02-16T19:21:46.018Z,11.93
2023-02-16T19:24:50.364Z,7.10
2023-02-16T19:27:53.120Z,8.83
2023-02-16T19:30:57.579Z,9.23
2023-02-16T19:34:01.654Z,8.73
2023-02-16T19:37:04.290Z,10.43
2023-02-16T19:40:10.431Z,9.93
2023-02-16T19:43:13.598Z,7.37
2023-02-16T19:46:16.419Z,8.48
2023-02-16T19:49:20.698Z,4.78
2023-02-16T19:52:23.709Z,6.70
2023-02-16T19:55:26.344Z,9.02
2023-02-16T19:58:29.162Z,8.23
2023-02-16T20:01:31.977Z,5.45
2023-02-16T20:04:36.400Z,9.02
2023-02-16T20:07:38.976Z,5.97
2023-02-16T20:10:44.300Z,14.70
2023-02-16T20:13:47.505Z,9.60
2023-02-16T20:16:51.855Z,6.43
2023-02-16T20:19:56.035Z,5.40
2023-02-16T20:22:58.726Z,6.10
2023-02-16T20:26:01.442Z,7.35
2023-02-16T20:29:05.059Z,7.88
2023-02-16T20:32:08.188Z,8.30
2023-02-16T20:35:12.632Z,8.93
2023-02-16T20:38:15.960Z,12.17
2023-02-16T20:41:19.661Z,9.38
2023-02-16T20:47:25.524Z,6.80
2023-02-16T20:50:29.490Z,10.65
2023-02-16T20:53:33.594Z,11.63
2023-02-16T20:56:36.960Z,6.83
2023-02-16T20:59:39.851Z,11.38
2023-02-16T21:02:43.272Z,10.75
2023-02-16T21:05:47.397Z,10.50
2023-02-16T21:08:50.220Z,18.13
2023-02-16T21:11:52.860Z,19.98
2023-02-16T21:14:55.870Z,16.70
2023-02-16T21:17:58.578Z,11.40
2023-02-16T21:21:03.227Z,12.93
2023-02-16T21:24:06.244Z,13.07
2023-02-16T21:27:09.352Z,12.32
2023-02-16T21:30:13.236Z,10.57
2023-02-16T21:33:15.973Z,8.13
2023-02-16T21:36:22.384Z,8.32
2023-02-16T21:43:10.984Z,6.47
2023-02-16T21:46:14.052Z,6.33
2023-02-16T21:49:18.278Z,6.03
2023-02-16T21:52:22.996Z,10.03
2023-02-16T21:55:52.238Z,6.23
2023-02-16T21:58:54.865Z,4.33
2023-02-16T22:01:57.584Z,6.00
2023-02-16T22:05:00.195Z,7.63
2023-02-16T22:08:04.399Z,4.37
2023-02-16T22:11:08.820Z,6.00
2023-02-16T22:14:12.006Z,5.83
2023-02-16T22:17:14.756Z,5.25
2023-02-16T22:20:18.013Z,6.15
2023-02-16T22:23:21.969Z,4.78
2023-02-16T22:26:26.235Z,6.67
2023-02-16T22:29:28.992Z,5.83
2023-02-16T22:32:31.689Z,5.25
2023-02-16T22:35:34.502Z,7.88
2023-02-16T22:38:38.717Z,6.03
2023-02-16T22:41:41.529Z,7.53
2023-02-16T22:44:44.152Z,8.98
2023-02-16T22:47:46.970Z,4.43
2023-02-16T22:50:58.203Z,4.13
2023-02-16T22:54:03.088Z,5.97
2023-02-16T22:57:07.933Z,4.23
2023-02-16T23:00:12.809Z,6.97
2023-02-16T23:03:15.742Z,4.03
2023-02-16T23:06:20.221Z,4.53
2023-02-16T23:09:24.549Z,5.10
2023-02-16T23:12:28.236Z,4.07
2023-02-16T23:18:33.614Z,5.77
2023-02-16T23:21:36.290Z,10.15
2023-02-16T23:24:41.271Z,6.70
2023-02-16T23:27:43.988Z,8.40
2023-02-16T23:30:47.635Z,3.97
2023-02-16T23:36:53.020Z,5.70
2023-02-16T23:39:56.952Z,6.35
2023-02-16T23:42:59.617Z,9.83
2023-02-16T23:46:03.163Z,5.07
2023-02-16T23:52:08.278Z,6.13
2023-02-16T23:55:12.526Z,8.73
2023-02-16T23:58:15.261Z,7.90
